Time;durP1;ratioP1;P1;durP2;ratioP2;P2;SDS_P1;SDS_P2;PMS_P1;PMS_P2;Temp;Humidity;BMP_temperature;BMP_pressure;BME280_temperature;BME280_humidity;BME280_pressure;Samples;Min_cycle;Max_cycle;Signal;HPM_P1;HPM_P2
2021/01/19 00:02:28;;;;;;;;;;;3.60;99.90;;;;;;4887174;29;19923;-81
2021/01/19 00:04:56;;;;;;;;;;;3.60;99.90;;;;;;4876609;29;19938;-81
2021/01/19 00:07:23;;;;;;;;;;;3.60;99.90;;;;;;4895193;29;19927;-80
2021/01/19 00:09:51;;;;;;;;;;;3.60;99.90;;;;;;4887153;29;19923;-81
2021/01/19 00:12:18;;;;;;;;;;;3.60;99.90;;;;;;4910973;29;19923;-81
2021/01/19 00:14:45;;;;;;;;;;;3.60;99.90;;;;;;4876373;29;19930;-79
2021/01/19 00:17:12;;;;;;;;;;;3.60;99.90;;;;;;4883057;29;20342;-79
2021/01/19 00:19:43;;;;;;;;;;;3.70;99.90;;;;;;4911444;29;19930;-81
2021/01/19 00:22:21;;;;;;;;;;;3.60;99.90;;;;;;4896969;29;19923;-81
2021/01/19 00:24:57;;;;;;;;;;;3.70;99.90;;;;;;4898274;29;20361;-80
2021/01/19 00:27:24;;;;;;;;;;;3.60;99.90;;;;;;4908778;29;19923;-80
2021/01/19 00:29:54;;;;;;;;;;;3.70;99.90;;;;;;4911746;29;19927;-80
2021/01/19 00:32:21;;;;;;;;;;;3.60;99.90;;;;;;4889540;29;19977;-80
2021/01/19 00:34:48;;;;;;;;;;;3.60;99.90;;;;;;4907735;29;20285;-81
2021/01/19 00:37:15;;;;;;;;;;;3.70;99.90;;;;;;4906025;29;19931;-79
2021/01/19 00:39:42;;;;;;;;;;;3.70;99.90;;;;;;4887421;29;19923;-79
2021/01/19 00:42:11;;;;;;;;;;;3.70;99.90;;;;;;4892159;29;19923;-79
2021/01/19 00:44:38;;;;;;;;;;;3.70;99.90;;;;;;4922419;29;19923;-81
2021/01/19 00:47:06;;;;;;;;;;;3.70;99.90;;;;;;4894436;29;19933;-80
2021/01/19 00:49:33;;;;;;;;;;;3.70;99.90;;;;;;4916302;29;19923;-80
2021/01/19 00:52:03;;;;;;;;;;;3.70;99.90;;;;;;4882676;29;19934;-80
2021/01/19 00:54:31;;;;;;;;;;;3.70;99.90;;;;;;4886584;29;19931;-81
2021/01/19 00:56:58;;;;;;;;;;;3.70;99.90;;;;;;4893549;29;19923;-80
2021/01/19 00:59:26;;;;;;;;;;;3.70;99.90;;;;;;4892669;29;19935;-80
2021/01/19 01:01:57;;;;;;;;;;;3.70;99.90;;;;;;4881149;29;19927;-81
2021/01/19 01:04:24;;;;;;;;;;;3.70;99.90;;;;;;4926081;29;19934;-80
2021/01/19 01:06:54;;;;;;;;;;;3.70;99.90;;;;;;4883284;29;19923;-81
2021/01/19 01:09:21;;;;;;;;;;;3.70;99.90;;;;;;4891389;29;19935;-81
2021/01/19 01:11:48;;;;;;;;;;;3.70;99.90;;;;;;4892535;29;19934;-81
2021/01/19 01:14:17;;;;;;;;;;;3.70;99.90;;;;;;4909385;29;19927;-81
2021/01/19 01:16:45;;;;;;;;;;;3.70;99.90;;;;;;4907294;29;19947;-81
2021/01/19 01:19:13;;;;;;;;;;;3.60;99.90;;;;;;4883291;29;20352;-80
2021/01/19 01:21:40;;;;;;;;;;;3.70;99.90;;;;;;4879198;29;20372;-80
2021/01/19 01:24:08;;;;;;;;;;;3.70;99.90;;;;;;4885144;29;19938;-80
2021/01/19 01:26:37;;;;;;;;;;;3.70;99.90;;;;;;4874028;29;20358;-80
2021/01/19 01:29:04;;;;;;;;;;;3.70;99.90;;;;;;4896938;29;19934;-81
2021/01/19 01:31:31;;;;;;;;;;;3.70;99.90;;;;;;4893535;29;19923;-80
2021/01/19 01:33:59;;;;;;;;;;;3.70;99.90;;;;;;4885934;29;19927;-80
2021/01/19 01:36:26;;;;;;;;;;;3.70;99.90;;;;;;4887260;29;20261;-80
2021/01/19 01:38:53;;;;;;;;;;;3.70;99.90;;;;;;4885999;29;20262;-81
2021/01/19 01:41:21;;;;;;;;;;;3.70;99.90;;;;;;4902726;29;20247;-81
2021/01/19 01:43:51;;;;;;;;;;;3.70;99.90;;;;;;4885519;29;19934;-81
2021/01/19 01:46:18;;;;;;;;;;;3.80;99.90;;;;;;4884579;29;20372;-81
2021/01/19 01:48:48;;;;;;;;;;;3.70;99.90;;;;;;4890591;29;19930;-81
2021/01/19 01:51:18;;;;;;;;;;;3.80;99.90;;;;;;4904168;29;19931;-80
2021/01/19 01:53:45;;;;;;;;;;;3.80;99.90;;;;;;4909951;29;20338;-80
2021/01/19 01:56:14;;;;;;;;;;;3.80;99.90;;;;;;4891941;29;19931;-81
2021/01/19 01:58:41;;;;;;;;;;;3.90;99.90;;;;;;4896310;29;19923;-80
2021/01/19 02:01:10;;;;;;;;;;;3.90;99.90;;;;;;4889448;29;19922;-80
2021/01/19 02:03:39;;;;;;;;;;;3.80;99.90;;;;;;4889149;29;19923;-81
2021/01/19 02:06:06;;;;;;;;;;;3.90;99.90;;;;;;4891878;29;19927;-80
2021/01/19 02:08:41;;;;;;;;;;;3.90;99.90;;;;;;4929726;29;19923;-81
2021/01/19 02:11:13;;;;;;;;;;;3.90;99.90;;;;;;4901115;29;19923;-81
2021/01/19 02:13:44;;;;;;;;;;;3.90;99.90;;;;;;4907031;29;19923;-81
2021/01/19 02:16:16;;;;;;;;;;;3.90;99.90;;;;;;4914046;29;20374;-80
2021/01/19 02:18:48;;;;;;;;;;;3.90;99.90;;;;;;4916137;29;19922;-81
2021/01/19 02:21:34;;;;;;;;;;;3.90;99.90;;;;;;4892737;29;19923;-80
2021/01/19 02:24:04;;;;;;;;;;;3.90;99.90;;;;;;4890072;29;19923;-80
2021/01/19 02:26:48;;;;;;;;;;;3.90;99.90;;;;;;4927016;29;19923;-80
2021/01/19 02:29:35;;;;;;;;;;;3.90;99.90;;;;;;4894338;29;19923;-81
2021/01/19 02:32:07;;;;;;;;;;;3.90;99.90;;;;;;4877211;29;19923;-81
2021/01/19 02:34:37;;;;;;;;;;;3.90;99.90;;;;;;4904014;29;19930;-81
2021/01/19 02:37:06;;;;;;;;;;;3.90;99.90;;;;;;4917008;29;19935;-81
2021/01/19 02:39:39;;;;;;;;;;;3.90;99.90;;;;;;4896658;29;19934;-81
2021/01/19 02:42:10;;;;;;;;;;;3.90;99.90;;;;;;4895871;29;19938;-80
2021/01/19 02:44:41;;;;;;;;;;;3.90;99.90;;;;;;4911225;29;20338;-81
2021/01/19 02:47:09;;;;;;;;;;;3.90;99.90;;;;;;4886321;29;19923;-80
2021/01/19 02:49:36;;;;;;;;;;;4.00;99.90;;;;;;4912394;29;19923;-81
2021/01/19 02:52:06;;;;;;;;;;;4.00;99.90;;;;;;4918886;29;19923;-81
2021/01/19 02:54:36;;;;;;;;;;;4.00;99.90;;;;;;4903204;29;19923;-81
2021/01/19 02:57:10;;;;;;;;;;;4.00;99.90;;;;;;4938382;29;19922;-80
2021/01/19 02:59:39;;;;;;;;;;;4.00;99.90;;;;;;4908118;29;19930;-81
2021/01/19 03:02:11;;;;;;;;;;;4.00;99.90;;;;;;4926147;29;19933;-81
2021/01/19 03:04:39;;;;;;;;;;;3.90;99.90;;;;;;4922937;29;19929;-81
2021/01/19 03:07:06;;;;;;;;;;;3.90;99.90;;;;;;4921915;29;19923;-81
2021/01/19 03:09:35;;;;;;;;;;;3.90;99.90;;;;;;4916337;29;20455;-81
2021/01/19 03:12:03;;;;;;;;;;;3.90;99.90;;;;;;4917237;29;19922;-81
2021/01/19 03:14:34;;;;;;;;;;;3.90;99.90;;;;;;4884990;29;20294;-80
2021/01/19 03:17:05;;;;;;;;;;;3.90;99.90;;;;;;4875483;29;19924;-80
2021/01/19 03:19:35;;;;;;;;;;;3.90;99.90;;;;;;4874488;29;19923;-80
2021/01/19 03:22:02;;;;;;;;;;;3.90;99.90;;;;;;4903442;29;19907;-80
2021/01/19 03:24:29;;;;;;;;;;;3.90;99.90;;;;;;4928663;29;19907;-81
2021/01/19 03:26:56;;;;;;;;;;;3.90;99.90;;;;;;4913126;29;19923;-80
2021/01/19 03:29:23;;;;;;;;;;;3.90;99.90;;;;;;4928724;29;19913;-80
2021/01/19 03:31:53;;;;;;;;;;;3.90;99.90;;;;;;4912909;29;19913;-80
2021/01/19 03:34:22;;;;;;;;;;;3.90;99.90;;;;;;4943175;29;19907;-81
2021/01/19 03:36:51;;;;;;;;;;;3.90;99.90;;;;;;4927872;29;19907;-80
2021/01/19 03:39:18;;;;;;;;;;;3.80;99.90;;;;;;4939844;29;19907;-80
2021/01/19 03:41:47;;;;;;;;;;;3.80;99.90;;;;;;4915716;29;19937;-81
2021/01/19 03:44:15;;;;;;;;;;;3.80;99.90;;;;;;4920413;29;19923;-81
2021/01/19 03:46:45;;;;;;;;;;;3.80;99.90;;;;;;4910933;29;19923;-81
2021/01/19 03:49:15;;;;;;;;;;;3.70;99.90;;;;;;4890626;29;19924;-81
2021/01/19 03:51:42;;;;;;;;;;;3.70;99.90;;;;;;4888334;29;19934;-81
2021/01/19 03:54:10;;;;;;;;;;;3.70;99.90;;;;;;4917658;29;19923;-80
2021/01/19 03:56:37;;;;;;;;;;;3.70;99.90;;;;;;4894541;29;19938;-80
2021/01/19 03:59:04;;;;;;;;;;;3.70;99.90;;;;;;4892887;29;19923;-80
2021/01/19 04:01:32;;;;;;;;;;;3.70;99.90;;;;;;4884074;29;19923;-80
2021/01/19 04:03:59;;;;;;;;;;;3.70;99.90;;;;;;4891744;29;19938;-80
2021/01/19 04:06:26;;;;;;;;;;;3.70;99.90;;;;;;4909987;29;19934;-80
2021/01/19 04:08:54;;;;;;;;;;;3.70;99.90;;;;;;4893683;29;19924;-81
2021/01/19 04:11:22;;;;;;;;;;;3.70;99.90;;;;;;4894465;29;19933;-80
2021/01/19 04:13:52;;;;;;;;;;;3.70;99.90;;;;;;4897350;29;20329;-80
2021/01/19 04:16:19;;;;;;;;;;;3.70;99.90;;;;;;4906173;29;20284;-80
2021/01/19 04:18:49;;;;;;;;;;;3.70;99.90;;;;;;4893811;29;19935;-80
2021/01/19 04:21:18;;;;;;;;;;;3.70;99.90;;;;;;4912363;29;19924;-80
2021/01/19 04:23:45;;;;;;;;;;;3.70;99.90;;;;;;4928061;29;19922;-81
2021/01/19 04:26:17;;;;;;;;;;;3.70;99.90;;;;;;4930395;29;19927;-80
2021/01/19 04:28:48;;;;;;;;;;;3.70;99.90;;;;;;4912068;29;19938;-81
2021/01/19 04:31:15;;;;;;;;;;;3.70;99.90;;;;;;4908755;29;19933;-80
2021/01/19 04:33:42;;;;;;;;;;;3.70;99.90;;;;;;4921747;29;19923;-81
2021/01/19 04:36:12;;;;;;;;;;;3.70;99.90;;;;;;4892470;29;19924;-80
2021/01/19 04:38:44;;;;;;;;;;;3.70;99.90;;;;;;4873669;29;19930;-80
2021/01/19 04:41:15;;;;;;;;;;;3.70;99.90;;;;;;4896378;29;19922;-80
2021/01/19 04:43:42;;;;;;;;;;;3.70;99.90;;;;;;4913285;29;19923;-81
2021/01/19 04:46:12;;;;;;;;;;;3.70;99.90;;;;;;4908510;29;19907;-80
2021/01/19 04:48:42;;;;;;;;;;;3.80;99.90;;;;;;4899045;29;19927;-80
2021/01/19 04:51:14;;;;;;;;;;;3.70;99.90;;;;;;4899775;29;20338;-81
2021/01/19 04:53:44;;;;;;;;;;;3.80;99.90;;;;;;4901293;29;19907;-81
2021/01/19 04:56:15;;;;;;;;;;;3.80;99.90;;;;;;4918871;29;19923;-81
2021/01/19 04:58:42;;;;;;;;;;;3.80;99.90;;;;;;4898684;29;20289;-80
2021/01/19 05:01:13;;;;;;;;;;;3.90;99.90;;;;;;4924869;29;19923;-81
2021/01/19 05:03:41;;;;;;;;;;;3.80;99.90;;;;;;4915271;29;19924;-80
2021/01/19 05:06:37;;;;;;;;;;;3.90;99.90;;;;;;4911217;29;19934;-80
2021/01/19 05:09:07;;;;;;;;;;;3.90;99.90;;;;;;4888336;29;19950;-80
2021/01/19 05:11:48;;;;;;;;;;;3.90;99.90;;;;;;4914355;29;19934;-80
2021/01/19 05:14:19;;;;;;;;;;;3.90;99.90;;;;;;4875489;29;19950;-80
2021/01/19 05:16:52;;;;;;;;;;;3.90;99.90;;;;;;4918552;29;19924;-80
2021/01/19 05:19:22;;;;;;;;;;;3.90;99.90;;;;;;4879513;29;19923;-80
2021/01/19 05:21:53;;;;;;;;;;;3.90;99.90;;;;;;4914973;29;19934;-81
2021/01/19 05:24:22;;;;;;;;;;;3.90;99.90;;;;;;4900082;29;19927;-80
2021/01/19 05:26:49;;;;;;;;;;;3.90;99.90;;;;;;4901509;29;19934;-81
2021/01/19 05:29:16;;;;;;;;;;;4.00;99.90;;;;;;4877372;29;19934;-81
2021/01/19 05:31:50;;;;;;;;;;;3.90;99.90;;;;;;4895981;29;19923;-81
2021/01/19 05:34:18;;;;;;;;;;;3.90;99.90;;;;;;4897182;29;19927;-80
2021/01/19 05:36:46;;;;;;;;;;;4.00;99.90;;;;;;4904354;29;20281;-81
2021/01/19 05:39:15;;;;;;;;;;;4.00;99.90;;;;;;4882457;29;19922;-81
2021/01/19 05:41:47;;;;;;;;;;;4.00;99.90;;;;;;4884614;29;19923;-80
2021/01/19 05:44:16;;;;;;;;;;;4.00;99.90;;;;;;4894999;29;19927;-80
2021/01/19 05:46:49;;;;;;;;;;;4.00;99.90;;;;;;4889185;29;19927;-80
2021/01/19 05:49:22;;;;;;;;;;;4.00;99.90;;;;;;4899372;29;19924;-80
2021/01/19 05:51:50;;;;;;;;;;;4.00;99.90;;;;;;4904312;29;20369;-81
2021/01/19 05:54:22;;;;;;;;;;;4.10;99.90;;;;;;4889221;29;20279;-81
2021/01/19 05:56:58;;;;;;;;;;;4.00;99.90;;;;;;4915016;29;19934;-81
2021/01/19 05:59:27;;;;;;;;;;;4.10;99.90;;;;;;4887816;29;19934;-81
2021/01/19 06:01:58;;;;;;;;;;;4.10;99.90;;;;;;4895569;29;20336;-81
2021/01/19 06:04:33;;;;;;;;;;;4.00;99.90;;;;;;4913713;29;20352;-81
2021/01/19 06:07:00;;;;;;;;;;;4.00;99.90;;;;;;4908117;29;19926;-81
2021/01/19 06:09:27;;;;;;;;;;;4.00;99.90;;;;;;4897703;29;19927;-80
2021/01/19 06:11:55;;;;;;;;;;;4.00;99.90;;;;;;4898857;29;19950;-80
2021/01/19 06:14:22;;;;;;;;;;;4.00;99.90;;;;;;4906702;29;19930;-81
2021/01/19 06:16:50;;;;;;;;;;;4.00;99.90;;;;;;4906478;29;19923;-80
2021/01/19 06:19:26;;;;;;;;;;;4.00;99.90;;;;;;4901561;29;19923;-81
2021/01/19 06:21:54;;;;;;;;;;;4.00;99.90;;;;;;4902914;29;19927;-81
2021/01/19 06:24:30;;;;;;;;;;;4.00;99.90;;;;;;4890374;29;19931;-80
2021/01/19 06:26:57;;;;;;;;;;;4.00;99.90;;;;;;4890742;29;19927;-81
2021/01/19 06:29:26;;;;;;;;;;;4.00;99.90;;;;;;4882998;29;20377;-80
2021/01/19 06:31:57;;;;;;;;;;;4.00;99.90;;;;;;4900898;29;20373;-80
2021/01/19 06:34:25;;;;;;;;;;;4.00;99.90;;;;;;4900432;29;20268;-79
2021/01/19 06:36:52;;;;;;;;;;;4.00;99.90;;;;;;4893351;29;20242;-80
2021/01/19 06:39:27;;;;;;;;;;;4.00;99.90;;;;;;4895029;29;19939;-81
2021/01/19 06:42:03;;;;;;;;;;;4.00;99.90;;;;;;4921697;29;19927;-80
2021/01/19 06:44:34;;;;;;;;;;;4.00;99.90;;;;;;4923262;29;19923;-80
2021/01/19 06:47:04;;;;;;;;;;;4.10;99.90;;;;;;4922855;29;19923;-80
2021/01/19 06:49:35;;;;;;;;;;;4.00;99.90;;;;;;4896510;29;19924;-80
2021/01/19 06:52:04;;;;;;;;;;;4.00;99.90;;;;;;4874290;29;19931;-80
2021/01/19 06:54:40;;;;;;;;;;;4.00;99.90;;;;;;4914764;29;20349;-80
2021/01/19 06:57:13;;;;;;;;;;;4.00;99.90;;;;;;4898233;29;19933;-80
2021/01/19 06:59:53;;;;;;;;;;;4.00;99.90;;;;;;4900345;29;19923;-79
2021/01/19 07:02:23;;;;;;;;;;;4.00;99.90;;;;;;4890872;29;19935;-80
2021/01/19 07:04:55;;;;;;;;;;;4.00;99.90;;;;;;4901405;29;19931;-80
2021/01/19 07:07:33;;;;;;;;;;;3.90;99.90;;;;;;4905093;29;19934;-79
2021/01/19 07:10:06;;;;;;;;;;;4.00;99.90;;;;;;4891600;29;20261;-80
2021/01/19 07:12:51;;;;;;;;;;;4.00;99.90;;;;;;4915029;29;19930;-82
2021/01/19 07:15:20;;;;;;;;;;;4.00;99.90;;;;;;4940984;29;19923;-83
2021/01/19 07:18:15;;;;;;;;;;;4.00;99.90;;;;;;4928338;29;20373;-81
2021/01/19 07:21:01;;;;;;;;;;;4.00;99.90;;;;;;4865011;29;20261;-81
2021/01/19 07:23:34;;;;;;;;;;;4.00;99.90;;;;;;4901415;29;19932;-81
2021/01/19 07:26:02;;;;;;;;;;;4.00;99.90;;;;;;4913400;29;19927;-81
2021/01/19 07:28:29;;;;;;;;;;;4.00;99.90;;;;;;4891744;29;19923;-81
2021/01/19 07:30:56;;;;;;;;;;;4.00;99.90;;;;;;4887542;29;19924;-81
2021/01/19 07:33:24;;;;;;;;;;;4.00;99.90;;;;;;4889842;29;19946;-80
2021/01/19 07:35:56;;;;;;;;;;;4.00;99.90;;;;;;4920830;29;20353;-80
2021/01/19 07:38:24;;;;;;;;;;;4.00;99.90;;;;;;4888093;29;19930;-80
2021/01/19 07:40:54;;;;;;;;;;;4.00;99.90;;;;;;4915844;29;19923;-80
2021/01/19 07:43:26;;;;;;;;;;;4.00;99.90;;;;;;4893619;29;19931;-80
2021/01/19 07:45:54;;;;;;;;;;;4.00;99.90;;;;;;4917564;29;19934;-81
2021/01/19 07:48:31;;;;;;;;;;;4.00;99.90;;;;;;4919991;29;19922;-80
2021/01/19 07:51:11;;;;;;;;;;;4.00;99.90;;;;;;4892953;29;19939;-79
2021/01/19 07:53:47;;;;;;;;;;;4.00;99.90;;;;;;4904683;29;19935;-79
2021/01/19 07:56:22;;;;;;;;;;;4.00;99.90;;;;;;4887882;29;19923;-80
2021/01/19 07:58:51;;;;;;;;;;;4.00;99.90;;;;;;4896246;29;19923;-81
2021/01/19 08:01:25;;;;;;;;;;;4.00;99.90;;;;;;4904785;29;19928;-80
2021/01/19 08:03:53;;;;;;;;;;;4.00;99.90;;;;;;4876720;29;19923;-81
2021/01/19 08:06:42;;;;;;;;;;;;;;;;;;;;;
2021/01/19 08:09:11;;;;;;;;;;;4.10;99.90;;;;;;4901705;29;19923;-81
2021/01/19 08:11:39;;;;;;;;;;;4.00;99.90;;;;;;4882351;29;19938;-80
2021/01/19 08:14:17;;;;;;;;;;;4.10;99.90;;;;;;4920846;29;19923;-80
2021/01/19 08:16:49;;;;;;;;;;;4.10;99.90;;;;;;4890144;29;19923;-79
2021/01/19 08:19:19;;;;;;;;;;;4.10;99.90;;;;;;4897794;29;19923;-79
2021/01/19 08:21:50;;;;;;;;;;;4.10;99.90;;;;;;4917866;29;19923;-79
2021/01/19 08:24:20;;;;;;;;;;;4.10;99.90;;;;;;4924065;29;19943;-80
2021/01/19 08:26:48;;;;;;;;;;;4.10;99.90;;;;;;4890091;29;19922;-80
2021/01/19 08:29:20;;;;;;;;;;;4.20;99.90;;;;;;4889506;29;19938;-79
2021/01/19 08:31:53;;;;;;;;;;;4.20;99.90;;;;;;4886899;29;19927;-79
2021/01/19 08:34:21;;;;;;;;;;;4.10;99.90;;;;;;4919636;29;19934;-79
2021/01/19 08:36:51;;;;;;;;;;;4.20;99.90;;;;;;4905409;29;20362;-80
2021/01/19 08:39:21;;;;;;;;;;;4.20;99.90;;;;;;4910271;29;19923;-81
2021/01/19 08:42:00;;;;;;;;;;;4.20;99.90;;;;;;4898649;29;19930;-82
2021/01/19 08:44:37;;;;;;;;;;;4.20;99.90;;;;;;4891447;29;20266;-82
2021/01/19 08:47:09;;;;;;;;;;;4.20;99.90;;;;;;4891143;29;19938;-81
2021/01/19 08:49:40;;;;;;;;;;;4.10;99.90;;;;;;5121241;23;19927;-81
2021/01/19 08:52:09;;;;;;;;;;;4.20;99.90;;;;;;4903881;29;19934;-81
2021/01/19 08:54:36;;;;;;;;;;;4.20;99.90;;;;;;4896727;29;20269;-80
2021/01/19 08:57:19;;;;;;;;;;;4.20;99.90;;;;;;4907689;29;19923;-81
2021/01/19 08:59:54;;;;;;;;;;;4.20;99.90;;;;;;4908232;29;19922;-81
2021/01/19 09:02:30;;;;;;;;;;;4.20;99.90;;;;;;4930713;29;19926;-82
2021/01/19 09:04:58;;;;;;;;;;;4.20;99.90;;;;;;4918757;29;19923;-82
2021/01/19 09:07:29;;;;;;;;;;;4.20;99.90;;;;;;4901141;29;19934;-82
2021/01/19 09:10:02;;;;;;;;;;;4.20;99.90;;;;;;4899370;29;19907;-84
2021/01/19 09:12:33;;;;;;;;;;;4.20;99.90;;;;;;4923584;29;19923;-82
2021/01/19 09:15:01;;;;;;;;;;;4.30;99.90;;;;;;4904129;29;19930;-82
2021/01/19 09:17:30;;;;;;;;;;;4.30;99.90;;;;;;4884287;29;19923;-81
2021/01/19 09:20:05;;;;;;;;;;;4.30;99.90;;;;;;4895175;29;19923;-81
2021/01/19 09:22:33;;;;;;;;;;;4.30;99.90;;;;;;4897510;29;19924;-81
2021/01/19 09:25:01;;;;;;;;;;;4.30;99.90;;;;;;4898340;29;19934;-81
2021/01/19 09:27:32;;;;;;;;;;;4.40;99.90;;;;;;4905952;29;19927;-81
2021/01/19 09:30:14;;;;;;;;;;;4.30;99.90;;;;;;4899034;29;19923;-80
2021/01/19 09:32:43;;;;;;;;;;;4.40;99.90;;;;;;4917441;29;19923;-80
2021/01/19 09:35:12;;;;;;;;;;;4.40;99.90;;;;;;4906765;29;19931;-80
2021/01/19 09:37:40;;;;;;;;;;;4.40;99.90;;;;;;4881445;29;20354;-81
2021/01/19 09:40:08;;;;;;;;;;;4.40;99.90;;;;;;4882825;29;20276;-81
2021/01/19 09:42:38;;;;;;;;;;;4.40;99.90;;;;;;4884539;29;20277;-81
2021/01/19 09:45:09;;;;;;;;;;;4.40;99.90;;;;;;4879339;29;19927;-82
2021/01/19 09:47:38;;;;;;;;;;;4.50;99.90;;;;;;4917157;29;19923;-81
2021/01/19 09:50:10;;;;;;;;;;;4.40;99.90;;;;;;4902465;29;19923;-76
2021/01/19 09:52:40;;;;;;;;;;;4.40;99.90;;;;;;4891380;29;19934;-77
2021/01/19 09:55:09;;;;;;;;;;;4.30;99.90;;;;;;4899828;29;19930;-76
2021/01/19 09:57:36;;;;;;;;;;;4.40;99.90;;;;;;4909467;29;19923;-76
2021/01/19 10:00:09;;;;;;;;;;;4.30;99.90;;;;;;4919151;29;19927;-76
2021/01/19 10:02:42;;;;;;;;;;;4.30;99.90;;;;;;4892541;29;19935;-76
2021/01/19 10:05:10;;;;;;;;;;;4.40;99.90;;;;;;4917181;29;19923;-77
2021/01/19 10:07:42;;;;;;;;;;;4.40;99.90;;;;;;4900105;29;19934;-77
2021/01/19 10:10:14;;;;;;;;;;;4.30;99.90;;;;;;4906368;29;19938;-76
2021/01/19 10:12:42;;;;;;;;;;;4.30;99.90;;;;;;4908006;29;19927;-76
2021/01/19 10:15:12;;;;;;;;;;;4.40;99.90;;;;;;4907467;29;19923;-78
2021/01/19 10:17:40;;;;;;;;;;;4.40;99.90;;;;;;4898726;29;19930;-79
2021/01/19 10:20:14;;;;;;;;;;;4.40;99.90;;;;;;4904993;29;19923;-76
2021/01/19 10:22:44;;;;;;;;;;;4.40;99.90;;;;;;4917193;29;19934;-79
2021/01/19 10:25:13;;;;;;;;;;;4.40;99.90;;;;;;4884023;29;19938;-76
2021/01/19 10:27:44;;;;;;;;;;;4.30;99.90;;;;;;4905757;29;20269;-76
2021/01/19 10:30:14;;;;;;;;;;;4.30;99.90;;;;;;4878910;29;19934;-78
2021/01/19 10:32:45;;;;;;;;;;;4.30;99.90;;;;;;4917812;29;19935;-78
2021/01/19 10:35:14;;;;;;;;;;;4.20;99.90;;;;;;4882874;29;19954;-76
2021/01/19 10:38:02;;;;;;;;;;;4.10;99.90;;;;;;4904910;29;20269;-76
2021/01/19 10:40:30;;;;;;;;;;;3.90;99.90;;;;;;4895882;29;19938;-76
2021/01/19 10:43:00;;;;;;;;;;;3.70;99.90;;;;;;4917345;29;19935;-77
2021/01/19 10:45:32;;;;;;;;;;;3.50;99.90;;;;;;4913251;29;19923;-77
2021/01/19 10:48:01;;;;;;;;;;;3.40;99.90;;;;;;4898728;29;19943;-78
2021/01/19 10:50:33;;;;;;;;;;;3.40;99.90;;;;;;4898502;29;20025;-77
2021/01/19 10:53:03;;;;;;;;;;;3.30;99.90;;;;;;4905310;29;19923;-78
2021/01/19 10:55:33;;;;;;;;;;;3.30;99.90;;;;;;4886858;29;20353;-78
2021/01/19 10:58:02;;;;;;;;;;;3.20;99.90;;;;;;4921003;29;19931;-77
2021/01/19 11:00:33;;;;;;;;;;;3.20;99.90;;;;;;4866789;29;19927;-76
2021/01/19 11:03:01;;;;;;;;;;;3.20;99.90;;;;;;4926942;29;19933;-76
2021/01/19 11:05:29;;;;;;;;;;;3.20;99.90;;;;;;4912559;29;19934;-78
2021/01/19 11:07:59;;;;;;;;;;;3.20;99.90;;;;;;4884710;29;19979;-78
2021/01/19 11:10:27;;;;;;;;;;;3.20;99.90;;;;;;4902431;29;20354;-79
2021/01/19 11:12:56;;;;;;;;;;;3.10;99.90;;;;;;4859583;29;20001;-80
2021/01/19 11:15:24;;;;;;;;;;;3.20;99.90;;;;;;4916064;29;19923;-80
2021/01/19 11:17:54;;;;;;;;;;;3.20;99.90;;;;;;4905110;29;19927;-80
2021/01/19 11:20:25;;;;;;;;;;;3.20;99.90;;;;;;4898618;29;19933;-83
2021/01/19 11:22:52;;;;;;;;;;;3.20;99.90;;;;;;4893628;29;19927;-79
2021/01/19 11:25:20;;;;;;;;;;;3.30;99.90;;;;;;4892327;29;20383;-76
2021/01/19 11:27:48;;;;;;;;;;;3.30;99.90;;;;;;4877078;29;19931;-76
2021/01/19 11:30:17;;;;;;;;;;;3.30;99.90;;;;;;4878451;29;19923;-77
2021/01/19 11:32:49;;;;;;;;;;;3.30;99.90;;;;;;4899292;29;19923;-78
2021/01/19 11:35:19;;;;;;;;;;;3.30;99.90;;;;;;4904659;29;19923;-77
2021/01/19 11:37:47;;;;;;;;;;;3.40;99.90;;;;;;4880456;29;19924;-78
2021/01/19 11:40:27;;;;;;;;;;;3.30;99.90;;;;;;4882763;29;19923;-78
2021/01/19 11:42:55;;;;;;;;;;;3.30;99.90;;;;;;4903427;29;19934;-80
2021/01/19 11:45:25;;;;;;;;;;;3.30;99.90;;;;;;4906100;29;19938;-78
2021/01/19 11:47:57;;;;;;;;;;;3.30;99.90;;;;;;4897066;29;20281;-82
2021/01/19 11:50:29;;;;;;;;;;;3.20;99.90;;;;;;4905094;29;19930;-80
2021/01/19 11:53:05;;;;;;;;;;;3.20;99.90;;;;;;4881147;29;19930;-76
2021/01/19 11:55:36;;;;;;;;;;;3.10;99.90;;;;;;4905551;29;19935;-77
2021/01/19 11:58:03;;;;;;;;;;;3.00;99.90;;;;;;4915435;29;19931;-77
2021/01/19 12:00:31;;;;;;;;;;;3.00;99.90;;;;;;4892880;29;19934;-80
2021/01/19 12:02:58;;;;;;;;;;;3.00;99.90;;;;;;4901460;29;20349;-78
2021/01/19 12:05:26;;;;;;;;;;;3.00;99.90;;;;;;4900321;29;19927;-79
2021/01/19 12:07:55;;;;;;;;;;;3.00;99.90;;;;;;4885462;29;19950;-78
2021/01/19 12:10:23;;;;;;;;;;;3.10;99.90;;;;;;4899838;29;19938;-83
2021/01/19 12:12:53;;;;;;;;;;;3.10;99.90;;;;;;4914494;29;20720;-84
2021/01/19 12:15:21;;;;;;;;;;;3.00;99.90;;;;;;4900207;29;19934;-83
2021/01/19 12:17:52;;;;;;;;;;;3.00;99.90;;;;;;4880387;29;19923;-84
2021/01/19 12:20:22;;;;;;;;;;;3.00;99.90;;;;;;4889969;29;19923;-81
2021/01/19 12:22:51;;;;;;;;;;;2.90;99.90;;;;;;4909189;29;19923;-85
2021/01/19 12:25:22;;;;;;;;;;;2.80;99.90;;;;;;4912781;29;19924;-87
2021/01/19 12:27:53;;;;;;;;;;;2.60;99.90;;;;;;4905317;29;19942;-85
2021/01/19 12:30:25;;;;;;;;;;;2.60;99.90;;;;;;4903119;29;19907;-81
2021/01/19 12:32:54;;;;;;;;;;;2.50;99.90;;;;;;4896736;29;19923;-82
2021/01/19 12:35:21;;;;;;;;;;;2.40;99.90;;;;;;4915934;29;19938;-82
2021/01/19 12:37:53;;;;;;;;;;;2.20;99.90;;;;;;4906430;29;20341;-83
2021/01/19 12:40:22;;;;;;;;;;;2.30;99.90;;;;;;4909341;29;19946;-82
2021/01/19 12:42:52;;;;;;;;;;;2.30;99.90;;;;;;4883346;29;19930;-81
2021/01/19 12:45:20;;;;;;;;;;;2.30;99.90;;;;;;4906484;29;20342;-83
2021/01/19 12:47:51;;;;;;;;;;;2.30;99.90;;;;;;4910395;29;20265;-84
2021/01/19 12:50:20;;;;;;;;;;;2.30;99.90;;;;;;4878928;29;19924;-82
2021/01/19 12:52:48;;;;;;;;;;;2.30;99.90;;;;;;4878850;29;19924;-82
2021/01/19 12:55:16;;;;;;;;;;;2.40;99.90;;;;;;4903582;29;19924;-80
2021/01/19 12:57:53;;;;;;;;;;;2.30;99.90;;;;;;4909318;29;19923;-81
2021/01/19 13:00:21;;;;;;;;;;;2.30;99.90;;;;;;4908351;29;20341;-80
2021/01/19 13:02:52;;;;;;;;;;;2.30;99.90;;;;;;4891342;29;19937;-81
2021/01/19 13:05:22;;;;;;;;;;;2.20;99.90;;;;;;4908801;29;19923;-81
2021/01/19 13:07:53;;;;;;;;;;;2.20;99.90;;;;;;4917181;29;19950;-80
2021/01/19 13:10:35;;;;;;;;;;;2.10;99.90;;;;;;4936056;29;19934;-81
2021/01/19 13:13:04;;;;;;;;;;;2.10;99.90;;;;;;4912349;29;19927;-82
2021/01/19 13:15:33;;;;;;;;;;;2.20;99.90;;;;;;4912146;29;19934;-81
2021/01/19 13:18:02;;;;;;;;;;;2.10;99.90;;;;;;4903553;29;19923;-81
2021/01/19 13:20:33;;;;;;;;;;;2.20;99.90;;;;;;4900806;29;19923;-81
2021/01/19 13:23:02;;;;;;;;;;;2.20;99.90;;;;;;4892897;29;19923;-83
2021/01/19 13:25:30;;;;;;;;;;;2.20;99.90;;;;;;4889592;29;19924;-83
2021/01/19 13:27:58;;;;;;;;;;;2.20;99.90;;;;;;4895188;29;20353;-81
2021/01/19 13:30:28;;;;;;;;;;;2.20;99.90;;;;;;4908809;29;19923;-81
2021/01/19 13:32:56;;;;;;;;;;;2.30;99.90;;;;;;4884906;29;19924;-82
2021/01/19 13:35:24;;;;;;;;;;;2.30;99.90;;;;;;4887934;29;19943;-83
2021/01/19 13:37:52;;;;;;;;;;;2.30;99.90;;;;;;4905422;29;19934;-82
2021/01/19 13:40:21;;;;;;;;;;;2.20;99.90;;;;;;4911908;29;19923;-82
2021/01/19 13:42:50;;;;;;;;;;;2.30;99.90;;;;;;4895758;29;19923;-83
2021/01/19 13:45:23;;;;;;;;;;;2.30;99.90;;;;;;4888934;29;19923;-83
2021/01/19 13:47:52;;;;;;;;;;;2.40;99.90;;;;;;4879427;29;19923;-84
2021/01/19 13:50:21;;;;;;;;;;;2.30;99.90;;;;;;4902032;29;19931;-80
2021/01/19 13:52:52;;;;;;;;;;;2.30;99.90;;;;;;4892503;29;19931;-81
2021/01/19 13:55:23;;;;;;;;;;;2.30;99.90;;;;;;4904567;29;20268;-83
2021/01/19 13:57:53;;;;;;;;;;;2.30;99.90;;;;;;4890811;29;19923;-85
2021/01/19 14:00:21;;;;;;;;;;;2.40;99.90;;;;;;4903397;29;19923;-80
2021/01/19 14:02:49;;;;;;;;;;;2.40;99.90;;;;;;4906319;29;19942;-81
2021/01/19 14:05:20;;;;;;;;;;;2.40;99.90;;;;;;4875997;29;19942;-83
2021/01/19 14:07:48;;;;;;;;;;;2.50;99.90;;;;;;4921407;29;19934;-80
2021/01/19 14:10:20;;;;;;;;;;;2.40;99.90;;;;;;4909513;29;19923;-80
2021/01/19 14:12:48;;;;;;;;;;;2.40;99.90;;;;;;4900000;29;19924;-82
2021/01/19 14:15:20;;;;;;;;;;;2.40;99.90;;;;;;4890470;29;19923;-80
2021/01/19 14:17:48;;;;;;;;;;;2.40;99.90;;;;;;4913695;29;19911;-84
2021/01/19 14:20:19;;;;;;;;;;;2.40;99.90;;;;;;4903351;29;19922;-85
2021/01/19 14:22:51;;;;;;;;;;;2.40;99.90;;;;;;4902920;29;19929;-85
2021/01/19 14:25:19;;;;;;;;;;;2.40;99.90;;;;;;4892775;29;19923;-85
2021/01/19 14:27:47;;;;;;;;;;;2.40;99.90;;;;;;4885636;29;19930;-84
2021/01/19 14:30:22;;;;;;;;;;;2.50;99.90;;;;;;4898618;29;20289;-83
2021/01/19 14:32:51;;;;;;;;;;;2.50;99.90;;;;;;4903812;29;19930;-85
2021/01/19 14:35:19;;;;;;;;;;;2.40;99.90;;;;;;4881954;29;20378;-81
2021/01/19 14:37:47;;;;;;;;;;;2.40;99.90;;;;;;4857744;29;19923;-84
2021/01/19 14:40:18;;;;;;;;;;;2.40;99.90;;;;;;4879132;29;20368;-83
2021/01/19 14:42:51;;;;;;;;;;;2.40;99.90;;;;;;4899870;29;19923;-82
2021/01/19 14:45:24;;;;;;;;;;;2.40;99.90;;;;;;4905120;29;19927;-82
2021/01/19 14:47:51;;;;;;;;;;;2.30;99.90;;;;;;4886308;29;19923;-80
2021/01/19 14:50:22;;;;;;;;;;;2.30;99.90;;;;;;4899632;29;19923;-81